sensor_id;sensor_type;location;lat;lon;timestamp;temperature;humidity
46029;DHT22;31763;48.180;7.904;2023-12-04T00:01:44;-3.10;99.90
46029;DHT22;31763;48.180;7.904;2023-12-04T00:04:12;-3.30;99.90
46029;DHT22;31763;48.180;7.904;2023-12-04T00:06:41;-3.30;99.90
46029;DHT22;31763;48.180;7.904;2023-12-04T00:09:08;-3.20;99.90
46029;DHT22;31763;48.180;7.904;2023-12-04T00:11:35;-3.00;99.90
46029;DHT22;31763;48.180;7.904;2023-12-04T00:14:02;-3.70;99.90
46029;DHT22;31763;48.180;7.904;2023-12-04T00:16:29;-3.90;99.90
46029;DHT22;31763;48.180;7.904;2023-12-04T00:18:56;-3.90;99.90
46029;DHT22;31763;48.180;7.904;2023-12-04T00:21:23;-4.00;99.90
46029;DHT22;31763;48.180;7.904;2023-12-04T00:23:50;-3.70;99.90
46029;DHT22;31763;48.180;7.904;2023-12-04T00:26:17;-3.70;99.90
46029;DHT22;31763;48.180;7.904;2023-12-04T00:28:44;-3.80;99.90
46029;DHT22;31763;48.180;7.904;2023-12-04T00:31:11;-3.70;99.90
46029;DHT22;31763;48.180;7.904;2023-12-04T00:33:38;-3.50;99.90
46029;DHT22;31763;48.180;7.904;2023-12-04T00:36:05;-3.30;99.90
46029;DHT22;31763;48.180;7.904;2023-12-04T00:38:32;-3.40;99.90
46029;DHT22;31763;48.180;7.904;2023-12-04T00:40:59;-3.40;99.90
46029;DHT22;31763;48.180;7.904;2023-12-04T00:43:26;-3.30;99.90
46029;DHT22;31763;48.180;7.904;2023-12-04T00:45:53;-3.10;99.90
46029;DHT22;31763;48.180;7.904;2023-12-04T00:48:20;-3.30;99.90
46029;DHT22;31763;48.180;7.904;2023-12-04T00:50:47;-3.10;99.90
46029;DHT22;31763;48.180;7.904;2023-12-04T00:53:14;-3.40;99.90
46029;DHT22;31763;48.180;7.904;2023-12-04T00:55:40;-3.90;99.90
46029;DHT22;31763;48.180;7.904;2023-12-04T00:58:07;-4.20;99.90
46029;DHT22;31763;48.180;7.904;2023-12-04T01:00:34;-4.10;99.90
46029;DHT22;31763;48.180;7.904;2023-12-04T01:03:01;-3.80;99.90
46029;DHT22;31763;48.180;7.904;2023-12-04T01:05:28;-4.00;99.90
46029;DHT22;31763;48.180;7.904;2023-12-04T01:07:55;-4.00;99.90
46029;DHT22;31763;48.180;7.904;2023-12-04T01:10:22;-4.10;99.90
46029;DHT22;31763;48.180;7.904;2023-12-04T01:12:49;-4.10;99.90
46029;DHT22;31763;48.180;7.904;2023-12-04T01:15:16;-4.20;99.90
46029;DHT22;31763;48.180;7.904;2023-12-04T01:17:43;-3.90;99.90
46029;DHT22;31763;48.180;7.904;2023-12-04T01:20:10;-3.90;99.90
46029;DHT22;31763;48.180;7.904;2023-12-04T01:22:37;-3.70;99.90
46029;DHT22;31763;48.180;7.904;2023-12-04T01:25:04;-3.90;99.90
46029;DHT22;31763;48.180;7.904;2023-12-04T01:27:31;-3.80;99.90
46029;DHT22;31763;48.180;7.904;2023-12-04T01:30:01;-3.90;99.90
46029;DHT22;31763;48.180;7.904;2023-12-04T01:32:29;-3.70;99.90
46029;DHT22;31763;48.180;7.904;2023-12-04T01:34:55;-3.70;99.90
46029;DHT22;31763;48.180;7.904;2023-12-04T01:37:22;-3.60;99.90
46029;DHT22;31763;48.180;7.904;2023-12-04T01:39:49;-3.80;99.90
46029;DHT22;31763;48.180;7.904;2023-12-04T01:42:16;-3.70;99.90
46029;DHT22;31763;48.180;7.904;2023-12-04T01:44:44;-3.70;99.90
46029;DHT22;31763;48.180;7.904;2023-12-04T01:47:11;-3.70;99.90
46029;DHT22;31763;48.180;7.904;2023-12-04T01:49:38;-3.60;99.90
46029;DHT22;31763;48.180;7.904;2023-12-04T01:52:05;-3.40;99.90
46029;DHT22;31763;48.180;7.904;2023-12-04T01:54:33;-3.60;99.90
46029;DHT22;31763;48.180;7.904;2023-12-04T01:57:02;-3.60;99.90
46029;DHT22;31763;48.180;7.904;2023-12-04T01:59:29;-3.50;99.90
46029;DHT22;31763;48.180;7.904;2023-12-04T02:02:12;-3.50;99.90
46029;DHT22;31763;48.180;7.904;2023-12-04T02:04:43;-3.70;99.90
46029;DHT22;31763;48.180;7.904;2023-12-04T02:07:41;-3.80;99.90
46029;DHT22;31763;48.180;7.904;2023-12-04T02:11:02;-3.70;99.90
46029;DHT22;31763;48.180;7.904;2023-12-04T02:14:03;-3.40;99.90
46029;DHT22;31763;48.180;7.904;2023-12-04T02:17:02;-3.20;99.90
46029;DHT22;31763;48.180;7.904;2023-12-04T02:20:04;-3.30;99.90
46029;DHT22;31763;48.180;7.904;2023-12-04T02:23:03;-3.30;99.90
46029;DHT22;31763;48.180;7.904;2023-12-04T02:25:43;-3.60;99.90
46029;DHT22;31763;48.180;7.904;2023-12-04T02:28:23;-3.80;99.90
46029;DHT22;31763;48.180;7.904;2023-12-04T02:30:51;-4.00;99.90
46029;DHT22;31763;48.180;7.904;2023-12-04T02:33:29;-4.10;99.90
46029;DHT22;31763;48.180;7.904;2023-12-04T02:36:24;-3.80;99.90
46029;DHT22;31763;48.180;7.904;2023-12-04T02:41:55;-3.70;99.90
46029;DHT22;31763;48.180;7.904;2023-12-04T02:44:22;-3.50;99.90
46029;DHT22;31763;48.180;7.904;2023-12-04T02:46:50;-3.90;99.90
46029;DHT22;31763;48.180;7.904;2023-12-04T02:49:17;-4.40;99.90
46029;DHT22;31763;48.180;7.904;2023-12-04T02:51:44;-4.60;99.90
46029;DHT22;31763;48.180;7.904;2023-12-04T02:54:11;-4.20;99.90
46029;DHT22;31763;48.180;7.904;2023-12-04T02:56:38;-4.00;99.90
46029;DHT22;31763;48.180;7.904;2023-12-04T02:59:05;-3.90;99.90
46029;DHT22;31763;48.180;7.904;2023-12-04T03:01:32;-3.90;99.90
46029;DHT22;31763;48.180;7.904;2023-12-04T03:03:59;-3.80;99.90
46029;DHT22;31763;48.180;7.904;2023-12-04T03:06:26;-3.80;99.90
46029;DHT22;31763;48.180;7.904;2023-12-04T03:08:53;-3.80;99.90
46029;DHT22;31763;48.180;7.904;2023-12-04T03:11:20;-3.80;99.90
46029;DHT22;31763;48.180;7.904;2023-12-04T03:13:47;-3.70;99.90
46029;DHT22;31763;48.180;7.904;2023-12-04T03:16:17;-3.60;99.90
46029;DHT22;31763;48.180;7.904;2023-12-04T03:18:45;-3.70;99.90
46029;DHT22;31763;48.180;7.904;2023-12-04T03:21:12;-3.70;99.90
46029;DHT22;31763;48.180;7.904;2023-12-04T03:23:39;-3.60;99.90
46029;DHT22;31763;48.180;7.904;2023-12-04T03:26:06;-3.70;99.90
46029;DHT22;31763;48.180;7.904;2023-12-04T03:28:33;-4.00;99.90
46029;DHT22;31763;48.180;7.904;2023-12-04T03:31:00;-4.10;99.90
46029;DHT22;31763;48.180;7.904;2023-12-04T03:33:28;-4.20;99.90
46029;DHT22;31763;48.180;7.904;2023-12-04T03:35:55;-4.30;99.90
46029;DHT22;31763;48.180;7.904;2023-12-04T03:38:22;-4.00;99.90
46029;DHT22;31763;48.180;7.904;2023-12-04T03:40:49;-3.90;99.90
46029;DHT22;31763;48.180;7.904;2023-12-04T03:43:16;-3.90;99.90
46029;DHT22;31763;48.180;7.904;2023-12-04T03:45:43;-3.90;99.90
46029;DHT22;31763;48.180;7.904;2023-12-04T03:48:11;-4.10;99.90
46029;DHT22;31763;48.180;7.904;2023-12-04T03:50:38;-3.90;99.90
46029;DHT22;31763;48.180;7.904;2023-12-04T03:53:05;-3.80;99.90
46029;DHT22;31763;48.180;7.904;2023-12-04T03:55:31;-3.70;99.90
46029;DHT22;31763;48.180;7.904;2023-12-04T03:57:58;-3.40;99.90
46029;DHT22;31763;48.180;7.904;2023-12-04T04:00:26;-3.40;99.90
46029;DHT22;31763;48.180;7.904;2023-12-04T04:02:53;-3.40;99.90
46029;DHT22;31763;48.180;7.904;2023-12-04T04:05:20;-3.30;99.90
46029;DHT22;31763;48.180;7.904;2023-12-04T04:07:47;-3.20;99.90
46029;DHT22;31763;48.180;7.904;2023-12-04T04:10:14;-3.20;99.90
46029;DHT22;31763;48.180;7.904;2023-12-04T04:12:41;-3.30;99.90
46029;DHT22;31763;48.180;7.904;2023-12-04T04:15:08;-3.20;99.90
46029;DHT22;31763;48.180;7.904;2023-12-04T04:17:35;-3.30;99.90
46029;DHT22;31763;48.180;7.904;2023-12-04T04:20:02;-3.30;99.90
46029;DHT22;31763;48.180;7.904;2023-12-04T04:22:30;-3.30;99.90
46029;DHT22;31763;48.180;7.904;2023-12-04T04:24:58;-3.40;99.90
46029;DHT22;31763;48.180;7.904;2023-12-04T04:27:25;-3.60;99.90
46029;DHT22;31763;48.180;7.904;2023-12-04T04:29:52;-3.50;99.90
46029;DHT22;31763;48.180;7.904;2023-12-04T04:32:19;-3.20;99.90
46029;DHT22;31763;48.180;7.904;2023-12-04T04:34:46;-3.20;99.90
46029;DHT22;31763;48.180;7.904;2023-12-04T04:37:13;-3.20;99.90
46029;DHT22;31763;48.180;7.904;2023-12-04T04:39:40;-3.10;99.90
46029;DHT22;31763;48.180;7.904;2023-12-04T04:42:07;-3.40;99.90
46029;DHT22;31763;48.180;7.904;2023-12-04T04:44:34;-3.60;99.90
46029;DHT22;31763;48.180;7.904;2023-12-04T04:47:01;-3.40;99.90
46029;DHT22;31763;48.180;7.904;2023-12-04T04:49:28;-3.50;99.90
46029;DHT22;31763;48.180;7.904;2023-12-04T04:51:56;-3.50;99.90
46029;DHT22;31763;48.180;7.904;2023-12-04T04:54:23;-3.60;99.90
46029;DHT22;31763;48.180;7.904;2023-12-04T04:56:49;-3.60;99.90
46029;DHT22;31763;48.180;7.904;2023-12-04T04:59:17;-3.30;99.90
46029;DHT22;31763;48.180;7.904;2023-12-04T05:01:44;-3.30;99.90
46029;DHT22;31763;48.180;7.904;2023-12-04T05:04:11;-3.10;99.90
46029;DHT22;31763;48.180;7.904;2023-12-04T05:06:38;-3.00;99.90
46029;DHT22;31763;48.180;7.904;2023-12-04T05:09:05;-3.00;99.90
46029;DHT22;31763;48.180;7.904;2023-12-04T05:11:32;-2.80;99.90
46029;DHT22;31763;48.180;7.904;2023-12-04T05:14:00;-2.60;99.90
46029;DHT22;31763;48.180;7.904;2023-12-04T05:16:27;-2.60;99.90
46029;DHT22;31763;48.180;7.904;2023-12-04T05:18:53;-2.70;99.90
46029;DHT22;31763;48.180;7.904;2023-12-04T05:21:21;-2.90;99.90
46029;DHT22;31763;48.180;7.904;2023-12-04T05:23:47;-2.90;99.90
46029;DHT22;31763;48.180;7.904;2023-12-04T05:26:15;-2.90;99.90
46029;DHT22;31763;48.180;7.904;2023-12-04T05:28:42;-2.90;99.90
46029;DHT22;31763;48.180;7.904;2023-12-04T05:31:09;-2.70;99.90
46029;DHT22;31763;48.180;7.904;2023-12-04T05:33:36;-2.80;99.90
46029;DHT22;31763;48.180;7.904;2023-12-04T05:36:07;-2.60;99.90
46029;DHT22;31763;48.180;7.904;2023-12-04T05:38:34;-2.70;99.90
46029;DHT22;31763;48.180;7.904;2023-12-04T05:41:01;-2.60;99.90
46029;DHT22;31763;48.180;7.904;2023-12-04T05:43:28;-2.50;99.90
46029;DHT22;31763;48.180;7.904;2023-12-04T05:45:54;-2.60;99.90
46029;DHT22;31763;48.180;7.904;2023-12-04T05:48:21;-2.70;99.90
46029;DHT22;31763;48.180;7.904;2023-12-04T05:50:48;-2.70;99.90
46029;DHT22;31763;48.180;7.904;2023-12-04T05:53:16;-2.50;99.90
46029;DHT22;31763;48.180;7.904;2023-12-04T05:55:43;-2.50;99.90
46029;DHT22;31763;48.180;7.904;2023-12-04T05:58:12;-2.40;99.90
46029;DHT22;31763;48.180;7.904;2023-12-04T06:00:39;-2.50;99.90
46029;DHT22;31763;48.180;7.904;2023-12-04T06:03:06;-2.50;99.90
46029;DHT22;31763;48.180;7.904;2023-12-04T06:05:33;-2.30;99.90
46029;DHT22;31763;48.180;7.904;2023-12-04T06:08:00;-2.30;99.90
46029;DHT22;31763;48.180;7.904;2023-12-04T06:10:27;-2.70;99.90
46029;DHT22;31763;48.180;7.904;2023-12-04T06:12:53;-2.70;99.90
46029;DHT22;31763;48.180;7.904;2023-12-04T06:15:20;-2.70;99.90
46029;DHT22;31763;48.180;7.904;2023-12-04T06:17:47;-2.60;99.90
46029;DHT22;31763;48.180;7.904;2023-12-04T06:20:14;-2.40;99.90
46029;DHT22;31763;48.180;7.904;2023-12-04T06:22:42;-2.70;99.90
46029;DHT22;31763;48.180;7.904;2023-12-04T06:25:09;-3.10;99.90
46029;DHT22;31763;48.180;7.904;2023-12-04T06:27:37;-3.40;99.90
46029;DHT22;31763;48.180;7.904;2023-12-04T06:30:06;-3.50;99.90
46029;DHT22;31763;48.180;7.904;2023-12-04T06:32:33;-3.50;99.90
46029;DHT22;31763;48.180;7.904;2023-12-04T06:35:01;-3.50;99.90
46029;DHT22;31763;48.180;7.904;2023-12-04T06:37:30;-3.50;99.90
46029;DHT22;31763;48.180;7.904;2023-12-04T06:40:00;-3.50;99.90
46029;DHT22;31763;48.180;7.904;2023-12-04T06:42:29;-3.30;99.90
46029;DHT22;31763;48.180;7.904;2023-12-04T06:44:56;-3.30;99.90
46029;DHT22;31763;48.180;7.904;2023-12-04T06:47:24;-3.40;99.90
46029;DHT22;31763;48.180;7.904;2023-12-04T06:49:51;-3.30;99.90
46029;DHT22;31763;48.180;7.904;2023-12-04T06:52:18;-3.20;99.90
46029;DHT22;31763;48.180;7.904;2023-12-04T06:54:45;-3.20;99.90
46029;DHT22;31763;48.180;7.904;2023-12-04T06:57:12;-3.30;99.90
46029;DHT22;31763;48.180;7.904;2023-12-04T06:59:44;-3.40;99.90
46029;DHT22;31763;48.180;7.904;2023-12-04T07:02:11;-3.60;99.90
46029;DHT22;31763;48.180;7.904;2023-12-04T07:04:38;-3.60;99.90
46029;DHT22;31763;48.180;7.904;2023-12-04T07:07:06;-3.50;99.90
46029;DHT22;31763;48.180;7.904;2023-12-04T07:09:33;-3.40;99.90
46029;DHT22;31763;48.180;7.904;2023-12-04T07:12:01;-3.30;99.90
46029;DHT22;31763;48.180;7.904;2023-12-04T07:14:29;-3.20;99.90
46029;DHT22;31763;48.180;7.904;2023-12-04T07:16:56;-3.30;99.90
46029;DHT22;31763;48.180;7.904;2023-12-04T07:19:23;-3.20;99.90
46029;DHT22;31763;48.180;7.904;2023-12-04T07:21:51;-3.20;99.90
46029;DHT22;31763;48.180;7.904;2023-12-04T07:24:18;-3.00;99.90
46029;DHT22;31763;48.180;7.904;2023-12-04T07:26:45;-3.00;99.90
46029;DHT22;31763;48.180;7.904;2023-12-04T07:29:11;-3.00;99.90
46029;DHT22;31763;48.180;7.904;2023-12-04T07:31:38;-2.80;99.90
46029;DHT22;31763;48.180;7.904;2023-12-04T07:34:05;-2.60;99.90
46029;DHT22;31763;48.180;7.904;2023-12-04T07:36:32;-2.40;99.90
46029;DHT22;31763;48.180;7.904;2023-12-04T07:38:59;-2.30;99.90
46029;DHT22;31763;48.180;7.904;2023-12-04T07:41:26;-2.40;99.90
46029;DHT22;31763;48.180;7.904;2023-12-04T07:43:53;-2.60;99.90
46029;DHT22;31763;48.180;7.904;2023-12-04T07:46:21;-2.60;99.90
46029;DHT22;31763;48.180;7.904;2023-12-04T07:48:48;-2.60;99.90
46029;DHT22;31763;48.180;7.904;2023-12-04T07:51:16;-2.60;99.90
46029;DHT22;31763;48.180;7.904;2023-12-04T07:53:43;-2.50;99.90
46029;DHT22;31763;48.180;7.904;2023-12-04T07:56:12;-1.90;99.90
46029;DHT22;31763;48.180;7.904;2023-12-04T07:58:39;-1.40;99.90
46029;DHT22;31763;48.180;7.904;2023-12-04T08:01:06;-1.40;99.90
46029;DHT22;31763;48.180;7.904;2023-12-04T08:03:33;-0.10;99.90
46029;DHT22;31763;48.180;7.904;2023-12-04T08:06:00;-0.20;99.90
46029;DHT22;31763;48.180;7.904;2023-12-04T08:08:27;-0.40;99.90
46029;DHT22;31763;48.180;7.904;2023-12-04T08:10:54;-1.00;99.90
46029;DHT22;31763;48.180;7.904;2023-12-04T08:13:21;-1.30;99.90
46029;DHT22;31763;48.180;7.904;2023-12-04T08:15:48;-1.30;99.90
46029;DHT22;31763;48.180;7.904;2023-12-04T08:18:15;-1.20;99.90
46029;DHT22;31763;48.180;7.904;2023-12-04T08:20:42;-1.10;99.90
46029;DHT22;31763;48.180;7.904;2023-12-04T08:23:09;-1.10;99.90
46029;DHT22;31763;48.180;7.904;2023-12-04T08:25:36;-1.20;99.90
46029;DHT22;31763;48.180;7.904;2023-12-04T08:28:05;-1.30;99.90
46029;DHT22;31763;48.180;7.904;2023-12-04T08:30:32;-1.20;99.90
46029;DHT22;31763;48.180;7.904;2023-12-04T08:32:59;-1.30;99.90
46029;DHT22;31763;48.180;7.904;2023-12-04T08:35:26;-0.20;99.90
46029;DHT22;31763;48.180;7.904;2023-12-04T08:37:53;2.80;99.90
46029;DHT22;31763;48.180;7.904;2023-12-04T08:40:21;1.10;99.90
46029;DHT22;31763;48.180;7.904;2023-12-04T08:42:48;-0.40;99.90
46029;DHT22;31763;48.180;7.904;2023-12-04T08:45:15;-1.60;99.90
46029;DHT22;31763;48.180;7.904;2023-12-04T08:47:45;-2.00;99.90
46029;DHT22;31763;48.180;7.904;2023-12-04T08:50:12;-2.10;99.90
46029;DHT22;31763;48.180;7.904;2023-12-04T08:52:39;-2.20;99.90
46029;DHT22;31763;48.180;7.904;2023-12-04T08:55:09;-2.50;99.90
46029;DHT22;31763;48.180;7.904;2023-12-04T08:57:36;-2.60;99.90
46029;DHT22;31763;48.180;7.904;2023-12-04T09:00:05;-2.40;99.90
46029;DHT22;31763;48.180;7.904;2023-12-04T09:02:34;-2.50;99.90
46029;DHT22;31763;48.180;7.904;2023-12-04T09:05:04;-2.40;99.90
46029;DHT22;31763;48.180;7.904;2023-12-04T09:07:32;-2.50;99.90
46029;DHT22;31763;48.180;7.904;2023-12-04T09:10:02;-2.40;99.90
46029;DHT22;31763;48.180;7.904;2023-12-04T09:12:40;-2.40;99.90
46029;DHT22;31763;48.180;7.904;2023-12-04T09:15:07;-2.20;99.90
46029;DHT22;31763;48.180;7.904;2023-12-04T09:17:35;-2.10;99.90
46029;DHT22;31763;48.180;7.904;2023-12-04T09:20:05;-2.10;99.90
46029;DHT22;31763;48.180;7.904;2023-12-04T09:22:33;-2.00;99.90
46029;DHT22;31763;48.180;7.904;2023-12-04T09:25:16;-1.60;99.90
46029;DHT22;31763;48.180;7.904;2023-12-04T09:27:42;-0.90;99.90
46029;DHT22;31763;48.180;7.904;2023-12-04T09:30:10;-0.20;99.90
46029;DHT22;31763;48.180;7.904;2023-12-04T09:32:37;0.40;99.90
46029;DHT22;31763;48.180;7.904;2023-12-04T09:35:04;0.90;99.90
46029;DHT22;31763;48.180;7.904;2023-12-04T09:37:31;1.00;99.90
46029;DHT22;31763;48.180;7.904;2023-12-04T09:39:58;1.10;99.90
46029;DHT22;31763;48.180;7.904;2023-12-04T09:42:25;1.10;99.90
46029;DHT22;31763;48.180;7.904;2023-12-04T09:44:53;1.20;99.90
46029;DHT22;31763;48.180;7.904;2023-12-04T09:47:21;1.60;99.90
46029;DHT22;31763;48.180;7.904;2023-12-04T09:49:51;1.70;99.90
46029;DHT22;31763;48.180;7.904;2023-12-04T09:52:22;1.80;99.90
46029;DHT22;31763;48.180;7.904;2023-12-04T09:54:50;1.70;99.90
46029;DHT22;31763;48.180;7.904;2023-12-04T09:57:17;1.60;99.90
46029;DHT22;31763;48.180;7.904;2023-12-04T09:59:45;1.50;99.90
46029;DHT22;31763;48.180;7.904;2023-12-04T10:02:13;1.50;99.90
46029;DHT22;31763;48.180;7.904;2023-12-04T10:04:42;1.40;99.90
46029;DHT22;31763;48.180;7.904;2023-12-04T10:07:09;1.40;99.90
46029;DHT22;31763;48.180;7.904;2023-12-04T10:09:36;1.30;99.90
46029;DHT22;31763;48.180;7.904;2023-12-04T10:12:06;1.30;99.90
46029;DHT22;31763;48.180;7.904;2023-12-04T10:14:32;1.40;99.90
46029;DHT22;31763;48.180;7.904;2023-12-04T10:16:59;1.20;99.90
46029;DHT22;31763;48.180;7.904;2023-12-04T10:19:40;1.20;99.90
46029;DHT22;31763;48.180;7.904;2023-12-04T10:22:14;1.30;99.90
46029;DHT22;31763;48.180;7.904;2023-12-04T10:24:53;1.40;99.90
46029;DHT22;31763;48.180;7.904;2023-12-04T10:27:31;1.50;99.90
46029;DHT22;31763;48.180;7.904;2023-12-04T10:30:00;1.40;99.90
46029;DHT22;31763;48.180;7.904;2023-12-04T10:32:42;1.40;99.90
46029;DHT22;31763;48.180;7.904;2023-12-04T10:35:14;1.40;99.90
46029;DHT22;31763;48.180;7.904;2023-12-04T10:37:43;1.40;99.90
46029;DHT22;31763;48.180;7.904;2023-12-04T10:40:40;1.40;99.90
46029;DHT22;31763;48.180;7.904;2023-12-04T10:45:45;1.40;99.90
46029;DHT22;31763;48.180;7.904;2023-12-04T10:48:14;1.20;99.90
46029;DHT22;31763;48.180;7.904;2023-12-04T10:50:46;1.30;99.90
46029;DHT22;31763;48.180;7.904;2023-12-04T10:53:15;1.40;99.90
46029;DHT22;31763;48.180;7.904;2023-12-04T10:55:43;1.40;99.90
46029;DHT22;31763;48.180;7.904;2023-12-04T10:58:15;1.40;99.90
46029;DHT22;31763;48.180;7.904;2023-12-04T11:00:44;1.40;99.90
46029;DHT22;31763;48.180;7.904;2023-12-04T11:03:31;1.50;99.90
46029;DHT22;31763;48.180;7.904;2023-12-04T11:06:02;1.40;99.90
46029;DHT22;31763;48.180;7.904;2023-12-04T11:08:33;1.50;99.90
46029;DHT22;31763;48.180;7.904;2023-12-04T11:11:08;1.40;99.90
46029;DHT22;31763;48.180;7.904;2023-12-04T11:13:44;1.40;99.90
46029;DHT22;31763;48.180;7.904;2023-12-04T11:16:20;1.40;99.90
46029;DHT22;31763;48.180;7.904;2023-12-04T11:18:56;1.40;99.90
46029;DHT22;31763;48.180;7.904;2023-12-04T11:21:45;1.40;99.90
46029;DHT22;31763;48.180;7.904;2023-12-04T11:24:13;1.40;99.90
46029;DHT22;31763;48.180;7.904;2023-12-04T11:26:40;1.40;99.90
46029;DHT22;31763;48.180;7.904;2023-12-04T11:29:09;1.40;99.90
46029;DHT22;31763;48.180;7.904;2023-12-04T11:31:36;1.40;99.90
46029;DHT22;31763;48.180;7.904;2023-12-04T11:34:04;1.40;99.90
46029;DHT22;31763;48.180;7.904;2023-12-04T11:36:31;1.40;99.90
46029;DHT22;31763;48.180;7.904;2023-12-04T11:39:00;1.50;99.90
46029;DHT22;31763;48.180;7.904;2023-12-04T11:41:27;1.40;99.90
46029;DHT22;31763;48.180;7.904;2023-12-04T11:43:57;1.40;99.90
46029;DHT22;31763;48.180;7.904;2023-12-04T11:46:27;1.40;99.90
46029;DHT22;31763;48.180;7.904;2023-12-04T11:49:25;1.50;99.90
46029;DHT22;31763;48.180;7.904;2023-12-04T11:51:56;1.50;99.90
46029;DHT22;31763;48.180;7.904;2023-12-04T11:54:26;1.70;99.90
46029;DHT22;31763;48.180;7.904;2023-12-04T11:57:40;1.80;99.90
46029;DHT22;31763;48.180;7.904;2023-12-04T11:59:49;1.90;99.90
46029;DHT22;31763;48.180;7.904;2023-12-04T12:02:16;1.90;99.90
46029;DHT22;31763;48.180;7.904;2023-12-04T12:05:18;2.00;99.90
46029;DHT22;31763;48.180;7.904;2023-12-04T12:08:35;2.10;99.90
46029;DHT22;31763;48.180;7.904;2023-12-04T12:11:13;2.20;99.90
46029;DHT22;31763;48.180;7.904;2023-12-04T12:13:53;2.30;99.90
46029;DHT22;31763;48.180;7.904;2023-12-04T12:16:22;2.30;99.90
46029;DHT22;31763;48.180;7.904;2023-12-04T12:18:53;2.40;99.90
46029;DHT22;31763;48.180;7.904;2023-12-04T12:21:20;2.40;99.90
46029;DHT22;31763;48.180;7.904;2023-12-04T12:24:06;2.40;99.90
46029;DHT22;31763;48.180;7.904;2023-12-04T12:27:11;2.50;99.90
46029;DHT22;31763;48.180;7.904;2023-12-04T12:29:46;2.50;99.90
46029;DHT22;31763;48.180;7.904;2023-12-04T12:32:17;2.50;99.90
46029;DHT22;31763;48.180;7.904;2023-12-04T12:34:54;2.50;99.90
46029;DHT22;31763;48.180;7.904;2023-12-04T12:38:03;2.50;99.90
46029;DHT22;31763;48.180;7.904;2023-12-04T12:41:04;2.50;99.90
46029;DHT22;31763;48.180;7.904;2023-12-04T12:44:01;2.50;99.90
46029;DHT22;31763;48.180;7.904;2023-12-04T12:50:03;2.40;99.90
46029;DHT22;31763;48.180;7.904;2023-12-04T12:56:01;2.40;99.90
46029;DHT22;31763;48.180;7.904;2023-12-04T12:59:06;2.40;99.90
46029;DHT22;31763;48.180;7.904;2023-12-04T13:01:37;2.40;99.90
46029;DHT22;31763;48.180;7.904;2023-12-04T13:04:07;2.30;99.90
46029;DHT22;31763;48.180;7.904;2023-12-04T13:06:36;2.40;99.90
46029;DHT22;31763;48.180;7.904;2023-12-04T13:09:04;2.40;99.90
46029;DHT22;31763;48.180;7.904;2023-12-04T13:11:33;2.30;99.90
46029;DHT22;31763;48.180;7.904;2023-12-04T13:14:01;2.30;99.90
46029;DHT22;31763;48.180;7.904;2023-12-04T13:16:28;2.40;99.90
46029;DHT22;31763;48.180;7.904;2023-12-04T13:18:55;2.40;99.90
46029;DHT22;31763;48.180;7.904;2023-12-04T13:21:22;2.50;99.90
46029;DHT22;31763;48.180;7.904;2023-12-04T13:23:49;2.60;99.90
46029;DHT22;31763;48.180;7.904;2023-12-04T13:26:15;2.60;99.90
46029;DHT22;31763;48.180;7.904;2023-12-04T13:28:42;2.60;99.90
46029;DHT22;31763;48.180;7.904;2023-12-04T13:31:10;2.70;99.90
46029;DHT22;31763;48.180;7.904;2023-12-04T13:33:37;2.70;99.90
46029;DHT22;31763;48.180;7.904;2023-12-04T13:36:05;2.70;99.90
46029;DHT22;31763;48.180;7.904;2023-12-04T13:38:32;2.70;99.90
46029;DHT22;31763;48.180;7.904;2023-12-04T13:41:03;2.60;99.90
46029;DHT22;31763;48.180;7.904;2023-12-04T13:43:49;2.60;99.90
46029;DHT22;31763;48.180;7.904;2023-12-04T13:46:19;2.50;99.90
46029;DHT22;31763;48.180;7.904;2023-12-04T13:48:46;2.50;99.90
46029;DHT22;31763;48.180;7.904;2023-12-04T13:51:13;2.60;99.90
46029;DHT22;31763;48.180;7.904;2023-12-04T13:53:40;2.60;99.90
46029;DHT22;31763;48.180;7.904;2023-12-04T13:56:12;2.70;99.90
46029;DHT22;31763;48.180;7.904;2023-12-04T13:58:48;2.70;99.90
46029;DHT22;31763;48.180;7.904;2023-12-04T14:01:23;2.80;99.90
46029;DHT22;31763;48.180;7.904;2023-12-04T14:03:55;2.80;99.90
46029;DHT22;31763;48.180;7.904;2023-12-04T14:06:28;2.90;99.90
46029;DHT22;31763;48.180;7.904;2023-12-04T14:08:57;2.70;99.90
46029;DHT22;31763;48.180;7.904;2023-12-04T14:11:25;2.80;99.90
46029;DHT22;31763;48.180;7.904;2023-12-04T14:13:52;2.90;99.90
46029;DHT22;31763;48.180;7.904;2023-12-04T14:16:19;3.10;99.90
46029;DHT22;31763;48.180;7.904;2023-12-04T14:18:45;3.10;99.90
46029;DHT22;31763;48.180;7.904;2023-12-04T14:21:12;3.30;99.90
46029;DHT22;31763;48.180;7.904;2023-12-04T14:23:39;3.30;99.90
46029;DHT22;31763;48.180;7.904;2023-12-04T14:26:06;3.30;99.90
46029;DHT22;31763;48.180;7.904;2023-12-04T14:28:33;3.50;99.90
46029;DHT22;31763;48.180;7.904;2023-12-04T14:31:09;3.50;99.90
46029;DHT22;31763;48.180;7.904;2023-12-04T14:33:37;3.50;99.90
46029;DHT22;31763;48.180;7.904;2023-12-04T14:36:09;3.60;99.90
46029;DHT22;31763;48.180;7.904;2023-12-04T14:38:38;3.70;99.90
46029;DHT22;31763;48.180;7.904;2023-12-04T14:41:06;3.70;99.90
46029;DHT22;31763;48.180;7.904;2023-12-04T14:43:33;3.70;99.90
46029;DHT22;31763;48.180;7.904;2023-12-04T14:46:00;3.60;99.90
46029;DHT22;31763;48.180;7.904;2023-12-04T14:48:29;3.70;99.90
46029;DHT22;31763;48.180;7.904;2023-12-04T14:50:56;3.70;99.90
46029;DHT22;31763;48.180;7.904;2023-12-04T14:53:27;3.70;99.90
46029;DHT22;31763;48.180;7.904;2023-12-04T14:55:57;3.70;99.90
46029;DHT22;31763;48.180;7.904;2023-12-04T14:58:39;3.70;99.90
46029;DHT22;31763;48.180;7.904;2023-12-04T15:01:12;3.70;99.90
46029;DHT22;31763;48.180;7.904;2023-12-04T15:03:58;3.70;99.90
46029;DHT22;31763;48.180;7.904;2023-12-04T15:06:54;3.70;99.90
46029;DHT22;31763;48.180;7.904;2023-12-04T15:09:41;3.90;99.90
46029;DHT22;31763;48.180;7.904;2023-12-04T15:12:34;3.80;99.90
46029;DHT22;31763;48.180;7.904;2023-12-04T15:15:07;3.80;99.90
46029;DHT22;31763;48.180;7.904;2023-12-04T15:18:06;3.80;99.90
46029;DHT22;31763;48.180;7.904;2023-12-04T15:20:52;3.90;99.90
46029;DHT22;31763;48.180;7.904;2023-12-04T15:23:18;3.90;99.90
46029;DHT22;31763;48.180;7.904;2023-12-04T15:25:45;3.80;99.90
46029;DHT22;31763;48.180;7.904;2023-12-04T15:28:12;3.90;99.90
46029;DHT22;31763;48.180;7.904;2023-12-04T15:30:40;3.80;99.90
46029;DHT22;31763;48.180;7.904;2023-12-04T15:33:08;3.80;99.90
46029;DHT22;31763;48.180;7.904;2023-12-04T15:35:35;3.80;99.90
46029;DHT22;31763;48.180;7.904;2023-12-04T15:38:04;3.80;99.90
46029;DHT22;31763;48.180;7.904;2023-12-04T15:40:30;3.90;99.90
46029;DHT22;31763;48.180;7.904;2023-12-04T15:42:58;3.90;99.90
46029;DHT22;31763;48.180;7.904;2023-12-04T15:45:25;3.90;99.90
46029;DHT22;31763;48.180;7.904;2023-12-04T15:47:52;3.90;99.90
46029;DHT22;31763;48.180;7.904;2023-12-04T15:50:20;3.90;99.90
46029;DHT22;31763;48.180;7.904;2023-12-04T15:52:49;4.00;99.90
46029;DHT22;31763;48.180;7.904;2023-12-04T15:55:16;3.90;99.90
46029;DHT22;31763;48.180;7.904;2023-12-04T15:57:43;4.00;99.90
46029;DHT22;31763;48.180;7.904;2023-12-04T16:00:10;4.10;99.90
46029;DHT22;31763;48.180;7.904;2023-12-04T16:02:42;4.00;99.90
46029;DHT22;31763;48.180;7.904;2023-12-04T16:05:09;4.20;99.90
46029;DHT22;31763;48.180;7.904;2023-12-04T16:07:38;4.20;99.90
46029;DHT22;31763;48.180;7.904;2023-12-04T16:10:05;4.10;99.90